createdAt,value
2019-06-20T00:00:44.140Z,99.90
2019-06-20T00:03:14.526Z,99.90
2019-06-20T00:05:44.797Z,99.90
2019-06-20T00:08:15.953Z,99.90
2019-06-20T00:10:46.422Z,99.30
2019-06-20T00:13:16.727Z,99.90
2019-06-20T00:15:46.993Z,99.90
2019-06-20T00:18:18.569Z,99.90
2019-06-20T00:20:48.968Z,99.90
2019-06-20T00:23:19.319Z,99.90
2019-06-20T00:25:49.767Z,99.90
2019-06-20T00:28:21.161Z,99.90
2019-06-20T00:30:51.640Z,99.90
2019-06-20T00:33:22.001Z,99.90
2019-06-20T00:35:52.325Z,99.90
2019-06-20T00:38:23.327Z,99.90
2019-06-20T00:40:53.818Z,99.90
2019-06-20T00:43:24.213Z,99.90
2019-06-20T00:45:54.565Z,99.90
2019-06-20T00:48:27.967Z,99.90
2019-06-20T00:50:58.282Z,99.90
2019-06-20T00:53:28.749Z,99.90
2019-06-20T00:55:59.129Z,99.90
2019-06-20T00:58:30.952Z,99.90
2019-06-20T01:01:01.345Z,99.90
2019-06-20T01:03:31.623Z,99.90
2019-06-20T01:06:02.368Z,99.90
2019-06-20T01:08:35.835Z,99.90
2019-06-20T01:11:04.839Z,99.90
2019-06-20T01:13:35.268Z,99.90
2019-06-20T01:16:05.557Z,99.90
2019-06-20T01:18:36.027Z,99.90
2019-06-20T01:21:18.432Z,99.90
2019-06-20T01:23:48.889Z,99.90
2019-06-20T01:26:19.176Z,99.90
2019-06-20T01:28:49.490Z,99.90
2019-06-20T01:31:19.783Z,99.90
2019-06-20T01:33:50.068Z,99.90
2019-06-20T01:36:22.144Z,99.90
2019-06-20T01:38:52.523Z,99.90
2019-06-20T01:41:23.115Z,99.90
2019-06-20T01:43:53.723Z,99.90
2019-06-20T01:46:24.048Z,99.90
2019-06-20T01:48:54.486Z,99.90
2019-06-20T01:51:24.907Z,99.90
2019-06-20T01:53:55.333Z,99.90
2019-06-20T01:56:25.798Z,99.90
2019-06-20T01:58:56.065Z,99.90
2019-06-20T02:01:26.522Z,99.90
2019-06-20T02:03:56.887Z,99.90
2019-06-20T02:06:27.144Z,99.90
2019-06-20T02:08:57.460Z,99.90
2019-06-20T02:11:27.838Z,99.90
2019-06-20T02:14:07.264Z,99.90
2019-06-20T02:16:30.290Z,99.90
2019-06-20T02:19:00.651Z,99.90
2019-06-20T02:21:30.900Z,99.90
2019-06-20T02:24:01.264Z,99.90
2019-06-20T02:26:31.708Z,99.90
2019-06-20T02:29:02.115Z,99.90
2019-06-20T02:31:32.434Z,99.90
2019-06-20T02:34:02.791Z,99.90
2019-06-20T02:36:33.231Z,99.90
2019-06-20T02:39:04.071Z,99.90
2019-06-20T02:41:34.382Z,99.90
2019-06-20T02:44:04.919Z,99.90
2019-06-20T02:46:35.262Z,99.90
2019-06-20T02:49:05.657Z,99.90
2019-06-20T02:51:35.918Z,99.90
2019-06-20T02:54:06.240Z,99.90
2019-06-20T02:56:36.572Z,99.90
2019-06-20T02:59:06.915Z,99.90
2019-06-20T03:01:37.355Z,99.90
2019-06-20T03:04:07.659Z,99.90
2019-06-20T03:06:37.908Z,99.90
2019-06-20T03:09:08.540Z,99.90
2019-06-20T03:11:38.815Z,99.90
2019-06-20T03:14:09.154Z,99.90
2019-06-20T03:16:39.468Z,99.90
2019-06-20T03:19:09.783Z,99.90
2019-06-20T03:21:40.051Z,99.90
2019-06-20T03:24:10.349Z,99.90
2019-06-20T03:26:40.625Z,99.90
2019-06-20T03:29:10.923Z,99.90
2019-06-20T03:31:41.205Z,99.90
2019-06-20T03:34:11.627Z,99.90
2019-06-20T03:36:41.941Z,99.90
2019-06-20T03:39:12.341Z,99.90
2019-06-20T03:41:42.791Z,99.90
2019-06-20T03:44:13.223Z,99.90
2019-06-20T03:46:43.542Z,99.90
2019-06-20T03:49:13.856Z,99.90
2019-06-20T03:51:44.222Z,99.90
2019-06-20T03:54:14.617Z,99.90
2019-06-20T03:56:44.990Z,99.90
2019-06-20T03:59:15.272Z,99.90
2019-06-20T04:01:49.022Z,99.90
2019-06-20T04:04:17.592Z,99.90
2019-06-20T04:06:47.994Z,99.90
2019-06-20T04:09:18.364Z,99.90
2019-06-20T04:11:48.765Z,99.90
2019-06-20T04:14:19.179Z,99.90
2019-06-20T04:16:49.508Z,99.90
2019-06-20T04:19:19.971Z,99.90
2019-06-20T04:21:50.258Z,99.90
2019-06-20T04:24:20.624Z,99.90
2019-06-20T04:26:50.911Z,99.90
2019-06-20T04:29:21.385Z,99.90
2019-06-20T04:31:51.645Z,99.90
2019-06-20T04:34:22.015Z,99.90
2019-06-20T04:36:52.340Z,99.90
2019-06-20T04:39:22.716Z,99.90
2019-06-20T04:41:52.953Z,99.90
2019-06-20T04:44:23.407Z,99.90
2019-06-20T04:47:07.764Z,99.90
2019-06-20T04:49:38.234Z,99.90
2019-06-20T04:52:08.587Z,99.90
2019-06-20T04:54:38.894Z,99.90
2019-06-20T04:57:09.219Z,99.90
2019-06-20T04:59:39.539Z,99.90
2019-06-20T05:02:09.875Z,99.90
2019-06-20T05:04:40.204Z,99.90
2019-06-20T05:07:20.179Z,99.90
2019-06-20T05:09:50.502Z,99.90
2019-06-20T05:12:21.152Z,99.90
2019-06-20T05:14:51.455Z,99.90
2019-06-20T05:17:21.751Z,99.90
2019-06-20T05:19:52.097Z,99.90
2019-06-20T05:22:22.624Z,99.90
2019-06-20T05:24:52.962Z,99.90
2019-06-20T05:27:23.247Z,99.90
2019-06-20T05:29:53.672Z,99.90
2019-06-20T05:32:23.988Z,99.90
2019-06-20T05:34:54.227Z,99.90
2019-06-20T05:37:24.523Z,99.90
2019-06-20T05:39:54.828Z,99.90
2019-06-20T05:42:25.283Z,99.90
2019-06-20T05:44:55.649Z,99.90
2019-06-20T05:47:26.075Z,99.90
2019-06-20T05:49:56.337Z,99.90
2019-06-20T05:52:26.708Z,99.90
2019-06-20T05:54:57.717Z,99.90
2019-06-20T05:57:28.121Z,99.90
2019-06-20T05:59:58.443Z,99.90
2019-06-20T06:02:28.875Z,99.90
2019-06-20T06:04:59.212Z,99.90
2019-06-20T06:07:29.525Z,99.90
2019-06-20T06:10:03.858Z,99.90
2019-06-20T06:12:33.831Z,99.90
2019-06-20T06:15:04.236Z,99.90
2019-06-20T06:17:34.509Z,99.90
2019-06-20T06:20:05.591Z,99.90
2019-06-20T06:22:35.897Z,99.90
2019-06-20T06:25:06.567Z,99.90
2019-06-20T06:27:36.938Z,99.90
2019-06-20T06:30:08.799Z,99.90
2019-06-20T06:32:40.269Z,99.90
2019-06-20T06:35:11.583Z,99.90
2019-06-20T06:37:41.834Z,99.90
2019-06-20T06:40:14.297Z,99.90
2019-06-20T06:42:44.547Z,99.90
2019-06-20T06:45:16.327Z,99.90
2019-06-20T06:47:46.647Z,99.90
2019-06-20T06:50:17.270Z,99.90
2019-06-20T06:52:47.516Z,99.90
2019-06-20T06:55:17.901Z,99.90
2019-06-20T06:57:48.171Z,99.90
2019-06-20T07:00:18.944Z,99.90
2019-06-20T07:02:49.251Z,99.90
2019-06-20T07:05:20.344Z,99.90
2019-06-20T07:07:50.628Z,99.90
2019-06-20T07:10:21.010Z,99.90
2019-06-20T07:12:51.355Z,99.90
2019-06-20T07:15:21.734Z,99.90
2019-06-20T07:17:52.154Z,99.90
2019-06-20T07:20:22.606Z,99.90
2019-06-20T07:22:53.328Z,99.90
2019-06-20T07:25:23.680Z,99.90
2019-06-20T07:27:54.003Z,99.90
2019-06-20T07:30:24.375Z,99.90
2019-06-20T07:32:54.673Z,99.90
2019-06-20T07:35:25.007Z,99.90
2019-06-20T07:37:55.423Z,99.90
2019-06-20T07:40:25.787Z,99.90
2019-06-20T07:42:56.115Z,99.90
2019-06-20T07:45:27.735Z,99.90
2019-06-20T07:47:58.347Z,99.90
2019-06-20T07:50:28.661Z,99.90
2019-06-20T07:53:02.457Z,99.90
2019-06-20T07:55:31.053Z,99.90
2019-06-20T07:58:01.360Z,99.90
2019-06-20T08:00:31.666Z,99.90
2019-06-20T08:03:02.248Z,99.90
2019-06-20T08:05:32.587Z,99.90
2019-06-20T08:08:02.970Z,99.90
2019-06-20T08:10:33.315Z,99.90
2019-06-20T08:13:03.646Z,99.90
2019-06-20T08:15:34.057Z,99.90
2019-06-20T08:18:04.527Z,99.90
2019-06-20T08:20:34.840Z,99.90
2019-06-20T08:23:05.176Z,99.90
2019-06-20T08:25:35.478Z,99.90
2019-06-20T08:28:06.589Z,99.90
2019-06-20T08:30:38.711Z,99.90
2019-06-20T08:33:11.974Z,99.90
2019-06-20T08:35:41.130Z,99.90
2019-06-20T08:38:11.507Z,99.90
2019-06-20T08:40:41.752Z,99.90
2019-06-20T08:43:12.178Z,99.90
2019-06-20T08:45:43.657Z,99.90
2019-06-20T08:48:14.104Z,99.90
2019-06-20T08:50:44.613Z,99.90
2019-06-20T08:53:16.047Z,99.90
2019-06-20T08:55:46.419Z,99.90
2019-06-20T08:58:16.688Z,99.90
2019-06-20T09:00:47.077Z,99.90
2019-06-20T09:03:17.504Z,99.90
2019-06-20T09:05:47.817Z,99.90
2019-06-20T09:08:18.325Z,99.90
2019-06-20T09:10:48.653Z,99.90
2019-06-20T09:13:22.493Z,99.90
2019-06-20T09:15:54.953Z,99.90
2019-06-20T09:18:25.239Z,99.90
2019-06-20T09:20:55.998Z,99.90
2019-06-20T09:23:26.421Z,99.90
2019-06-20T09:25:57.574Z,99.90
2019-06-20T09:28:28.059Z,99.90
2019-06-20T09:30:59.237Z,99.90
2019-06-20T09:33:29.654Z,99.90
2019-06-20T09:35:59.918Z,99.90
2019-06-20T09:38:30.364Z,99.90
2019-06-20T09:41:00.713Z,99.90
2019-06-20T09:43:31.031Z,99.90
2019-06-20T09:46:02.365Z,99.90
2019-06-20T09:48:33.006Z,99.90
2019-06-20T09:51:03.337Z,99.90
2019-06-20T09:53:33.656Z,99.90
2019-06-20T09:56:04.014Z,99.90
2019-06-20T09:58:34.406Z,99.90
2019-06-20T10:01:04.731Z,99.90
2019-06-20T10:03:35.092Z,99.90
2019-06-20T10:06:13.286Z,99.90
2019-06-20T10:08:37.414Z,99.90
2019-06-20T10:11:08.069Z,99.90
2019-06-20T10:13:38.385Z,99.90
2019-06-20T10:16:08.661Z,99.90
2019-06-20T10:18:38.974Z,99.90
2019-06-20T10:21:09.369Z,99.90
2019-06-20T10:23:39.753Z,99.90
2019-06-20T10:26:10.081Z,99.90
2019-06-20T10:28:40.476Z,99.90
2019-06-20T10:31:10.834Z,99.90
2019-06-20T10:33:41.210Z,99.90
2019-06-20T10:36:11.776Z,99.90
2019-06-20T10:38:42.181Z,99.90
2019-06-20T10:41:12.491Z,99.90
2019-06-20T10:43:43.036Z,99.90
2019-06-20T10:46:14.632Z,99.90
2019-06-20T10:48:45.988Z,99.90
2019-06-20T10:51:35.111Z,99.90
2019-06-20T10:54:05.669Z,99.90
2019-06-20T10:56:35.971Z,99.90
2019-06-20T10:59:11.844Z,99.90
2019-06-20T11:01:43.126Z,99.90
2019-06-20T11:04:14.428Z,99.90
2019-06-20T11:06:45.659Z,99.90
2019-06-20T11:09:18.255Z,99.90
2019-06-20T11:11:49.085Z,99.90
2019-06-20T11:14:19.550Z,99.90
2019-06-20T11:16:50.003Z,99.90
2019-06-20T11:19:20.312Z,99.90
2019-06-20T11:21:50.720Z,99.90
2019-06-20T11:24:20.999Z,99.90
2019-06-20T11:26:51.277Z,99.90
2019-06-20T11:29:21.597Z,99.90
2019-06-20T11:31:51.888Z,99.90
2019-06-20T11:34:24.995Z,99.90
2019-06-20T11:36:55.401Z,99.90
2019-06-20T11:39:25.723Z,99.90
2019-06-20T11:41:56.065Z,99.90
2019-06-20T11:44:26.467Z,99.90
2019-06-20T11:47:20.576Z,99.90
2019-06-20T11:49:50.558Z,99.90
2019-06-20T11:52:21.042Z,99.90
2019-06-20T11:54:51.487Z,99.90
2019-06-20T11:57:21.851Z,99.90
2019-06-20T11:59:52.238Z,99.90
2019-06-20T12:02:22.744Z,99.90
2019-06-20T12:04:53.070Z,99.90
2019-06-20T12:07:23.411Z,99.90
2019-06-20T12:09:53.757Z,99.90
2019-06-20T12:12:24.120Z,99.90
2019-06-20T12:14:54.432Z,99.90
2019-06-20T12:17:24.786Z,99.90
2019-06-20T12:19:55.149Z,99.90
2019-06-20T12:22:25.501Z,99.90
2019-06-20T12:24:55.816Z,99.90
2019-06-20T12:27:26.133Z,99.90
2019-06-20T12:29:56.799Z,99.90
2019-06-20T12:32:27.149Z,99.90
2019-06-20T12:34:57.717Z,99.90
2019-06-20T12:37:28.027Z,99.90
2019-06-20T12:39:58.325Z,99.90
2019-06-20T12:42:28.732Z,99.90
2019-06-20T12:44:59.205Z,99.90
2019-06-20T12:47:29.623Z,99.90
2019-06-20T12:50:00.020Z,99.90
2019-06-20T12:52:30.432Z,99.90
2019-06-20T12:55:01.310Z,99.90
2019-06-20T12:57:31.664Z,99.90
2019-06-20T13:00:02.149Z,99.90
2019-06-20T13:02:32.532Z,99.90
2019-06-20T13:05:02.908Z,99.90
2019-06-20T13:07:33.530Z,99.90
2019-06-20T13:10:04.359Z,99.90
2019-06-20T13:12:34.678Z,99.90
2019-06-20T13:15:06.201Z,99.90
2019-06-20T13:17:39.237Z,99.90
2019-06-20T13:20:08.833Z,99.90
2019-06-20T13:22:40.854Z,99.90
2019-06-20T13:25:12.938Z,99.90
2019-06-20T13:27:43.539Z,99.90
2019-06-20T13:30:14.091Z,99.90
2019-06-20T13:32:45.399Z,99.90
2019-06-20T13:35:16.729Z,99.90
2019-06-20T13:37:47.848Z,99.90
2019-06-20T13:40:19.447Z,99.90
2019-06-20T13:42:50.347Z,99.90
2019-06-20T13:45:23.056Z,99.90
2019-06-20T13:47:54.914Z,99.90
2019-06-20T13:50:25.851Z,99.90
2019-06-20T13:52:56.200Z,99.90
2019-06-20T13:55:26.587Z,99.90
2019-06-20T13:57:58.172Z,99.90
2019-06-20T14:00:28.595Z,99.90
2019-06-20T14:02:58.963Z,99.90
2019-06-20T14:05:29.312Z,99.90
2019-06-20T14:08:00.233Z,99.90
2019-06-20T14:10:30.668Z,99.90
2019-06-20T14:13:01.759Z,99.90
2019-06-20T14:15:32.169Z,99.90
2019-06-20T14:18:03.154Z,99.90
2019-06-20T14:20:34.597Z,99.90
2019-06-20T14:23:07.528Z,99.90
2019-06-20T14:25:38.675Z,99.90
2019-06-20T14:28:11.273Z,99.90
2019-06-20T14:30:44.455Z,99.90
2019-06-20T14:33:13.772Z,99.90
2019-06-20T14:35:46.059Z,99.90
2019-06-20T14:38:17.518Z,99.90
2019-06-20T14:40:48.309Z,99.90
2019-06-20T14:43:18.729Z,99.90
2019-06-20T14:45:50.648Z,99.90
2019-06-20T14:48:22.765Z,99.90
2019-06-20T14:50:53.422Z,99.90
2019-06-20T14:53:24.868Z,99.90
2019-06-20T14:55:55.253Z,99.90
2019-06-20T14:58:25.637Z,99.90
2019-06-20T15:00:55.982Z,99.90
2019-06-20T15:03:26.279Z,99.90
2019-06-20T15:20:58.969Z,87.50
2019-06-20T15:25:57.522Z,91.90
2019-06-20T15:28:27.800Z,95.00
2019-06-20T15:40:59.272Z,76.40
2019-06-20T15:43:29.863Z,72.50
2019-06-20T15:46:00.198Z,83.00
2019-06-20T15:48:30.475Z,90.10
2019-06-20T15:51:00.750Z,91.40
2019-06-20T15:53:31.148Z,93.20
2019-06-20T15:56:01.652Z,92.70
2019-06-20T15:58:32.165Z,93.70
2019-06-20T16:01:02.582Z,94.10
2019-06-20T16:03:32.966Z,94.60
2019-06-20T16:06:03.521Z,95.60
2019-06-20T16:16:02.989Z,96.60
2019-06-20T16:18:33.360Z,90.50
2019-06-20T16:21:03.674Z,90.00
2019-06-20T16:23:34.076Z,90.60
2019-06-20T16:26:04.465Z,89.20
2019-06-20T16:31:13.247Z,89.10
2019-06-20T16:33:39.519Z,90.50
2019-06-20T16:36:12.891Z,90.40
2019-06-20T16:38:41.994Z,90.10
2019-06-20T16:41:12.333Z,90.40
2019-06-20T16:43:42.714Z,90.40
2019-06-20T16:46:13.028Z,89.80
2019-06-20T16:48:43.423Z,89.90
2019-06-20T16:51:13.908Z,90.00
2019-06-20T16:53:44.210Z,90.80
2019-06-20T16:56:14.525Z,90.50
2019-06-20T16:58:44.807Z,91.00
2019-06-20T17:01:15.306Z,91.00
2019-06-20T17:03:45.639Z,91.30
2019-06-20T17:06:15.969Z,91.70
2019-06-20T17:08:46.394Z,91.60
2019-06-20T17:11:16.811Z,91.40
2019-06-20T17:13:47.142Z,91.60
2019-06-20T17:16:17.516Z,91.40
2019-06-20T17:18:47.867Z,91.00
2019-06-20T17:21:18.372Z,90.40
2019-06-20T17:23:48.679Z,90.00
2019-06-20T17:26:19.047Z,90.30
2019-06-20T17:28:49.333Z,90.70
2019-06-20T17:31:19.739Z,90.70
2019-06-20T17:33:57.477Z,90.50
2019-06-20T17:36:22.110Z,90.40
2019-06-20T17:38:52.607Z,90.80
2019-06-20T17:41:23.228Z,90.80
2019-06-20T17:43:53.603Z,91.10
2019-06-20T17:46:23.983Z,90.90
2019-06-20T17:48:54.367Z,91.20
2019-06-20T17:51:24.681Z,90.70
2019-06-20T17:53:54.945Z,89.20
2019-06-20T17:56:25.256Z,88.40
2019-06-20T17:58:55.607Z,88.70
2019-06-20T18:01:25.954Z,88.60
2019-06-20T18:03:56.220Z,87.90
2019-06-20T18:06:26.543Z,89.20
2019-06-20T18:08:56.873Z,90.20
2019-06-20T18:11:27.181Z,90.10
2019-06-20T18:13:57.585Z,90.50
2019-06-20T18:16:27.865Z,91.00
2019-06-20T18:18:58.127Z,91.60
2019-06-20T18:21:28.480Z,91.10
2019-06-20T18:23:58.933Z,91.20
2019-06-20T18:26:28.892Z,91.30
2019-06-20T18:28:59.208Z,91.50
2019-06-20T18:31:29.795Z,91.60
2019-06-20T18:34:00.179Z,91.70
2019-06-20T18:36:30.547Z,91.50
2019-06-20T18:39:01.311Z,91.70
2019-06-20T18:41:31.647Z,91.70
2019-06-20T18:44:02.132Z,91.90
2019-06-20T18:46:32.692Z,92.30
2019-06-20T18:49:03.034Z,92.10
2019-06-20T18:51:33.341Z,90.80
2019-06-20T18:54:04.617Z,90.90
2019-06-20T18:56:35.063Z,90.10
2019-06-20T18:59:05.412Z,90.50
2019-06-20T19:01:35.794Z,90.60
2019-06-20T19:04:06.309Z,90.80
2019-06-20T19:06:36.659Z,91.10
2019-06-20T19:09:08.519Z,91.20
2019-06-20T19:11:38.781Z,91.30
2019-06-20T19:14:12.456Z,91.50
2019-06-20T19:16:41.254Z,91.70
2019-06-20T19:19:11.619Z,91.90
2019-06-20T19:21:41.927Z,92.40
2019-06-20T19:24:12.187Z,92.80
2019-06-20T19:26:42.578Z,92.90
2019-06-20T19:29:12.845Z,92.80
2019-06-20T19:31:43.166Z,92.80
2019-06-20T19:34:13.501Z,93.20
2019-06-20T19:36:43.849Z,93.30
2019-06-20T19:39:14.359Z,93.60
2019-06-20T19:41:44.770Z,93.80
2019-06-20T19:44:15.221Z,94.10
2019-06-20T19:46:45.666Z,94.10
2019-06-20T19:49:16.054Z,94.00
2019-06-20T19:51:46.451Z,94.10
2019-06-20T19:54:16.840Z,94.30
2019-06-20T19:56:47.224Z,94.60
2019-06-20T19:59:17.554Z,95.20
2019-06-20T20:51:44.280Z,95.40
2019-06-20T20:59:13.746Z,97.10
2019-06-20T21:01:44.083Z,97.90
2019-06-20T21:04:14.437Z,98.40
2019-06-20T21:06:44.992Z,98.90
2019-06-20T21:09:15.322Z,98.90
2019-06-20T21:11:45.696Z,98.70
2019-06-20T21:14:16.312Z,98.60
2019-06-20T21:16:46.585Z,98.50
2019-06-20T21:19:19.999Z,98.80
2019-06-20T21:21:50.444Z,98.60
2019-06-20T21:24:20.799Z,98.50
2019-06-20T21:26:51.148Z,98.60
2019-06-20T21:29:21.464Z,98.80
2019-06-20T21:31:51.850Z,99.10
2019-06-20T21:34:22.283Z,99.20
2019-06-20T21:36:52.616Z,98.80
2019-06-20T21:39:24.131Z,99.10
2019-06-20T21:41:54.553Z,99.30
2019-06-20T21:44:24.986Z,99.10
2019-06-20T21:46:55.337Z,99.10
2019-06-20T21:49:25.687Z,99.30
2019-06-20T21:51:56.007Z,99.10
2019-06-20T21:54:26.315Z,99.40
2019-06-20T21:56:56.736Z,99.90
2019-06-20T21:59:27.084Z,99.80
2019-06-20T22:01:57.697Z,99.80
2019-06-20T22:04:28.055Z,99.80
2019-06-20T22:27:01.181Z,99.90
2019-06-20T22:29:31.514Z,99.90
2019-06-20T22:32:01.928Z,99.90
2019-06-20T23:04:28.936Z,99.90
2019-06-20T23:06:59.279Z,99.90
2019-06-20T23:09:29.506Z,99.90
2019-06-20T23:11:59.783Z,99.90
2019-06-20T23:14:30.047Z,99.90
2019-06-20T23:17:00.369Z,99.90
2019-06-20T23:19:30.729Z,99.90
2019-06-20T23:22:01.272Z,99.90
2019-06-20T23:24:31.544Z,99.90
2019-06-20T23:27:01.953Z,99.90
2019-06-20T23:29:32.211Z,99.90
2019-06-20T23:34:32.207Z,99.90
2019-06-20T23:37:12.425Z,99.90
2019-06-20T23:39:34.600Z,99.90
